sensor_id;sensor_type;location;lat;lon;timestamp;pressure;altitude;pressure_sealevel;temperature;humidity
15634;BME280;14654;48.898;8.308;2022-11-03T00:01:00;100671.44;;;7.05;100.00
15634;BME280;14654;48.898;8.308;2022-11-03T00:03:26;100663.69;;;7.02;100.00
15634;BME280;14654;48.898;8.308;2022-11-03T00:05:52;100664.53;;;7.01;100.00
15634;BME280;14654;48.898;8.308;2022-11-03T00:11:10;100655.91;;;6.99;100.00
15634;BME280;14654;48.898;8.308;2022-11-03T00:13:37;100655.03;;;6.97;100.00
15634;BME280;14654;48.898;8.308;2022-11-03T00:16:03;100655.88;;;6.96;100.00
15634;BME280;14654;48.898;8.308;2022-11-03T00:18:29;100653.31;;;6.94;100.00
15634;BME280;14654;48.898;8.308;2022-11-03T00:21:05;100648.09;;;6.90;100.00
15634;BME280;14654;48.898;8.308;2022-11-03T00:23:33;100649.75;;;6.84;100.00
15634;BME280;14654;48.898;8.308;2022-11-03T00:28:32;100651.41;;;6.79;100.00
15634;BME280;14654;48.898;8.308;2022-11-03T00:31:05;100653.06;;;6.76;100.00
15634;BME280;14654;48.898;8.308;2022-11-03T00:33:31;100649.59;;;6.70;100.00
15634;BME280;14654;48.898;8.308;2022-11-03T00:35:58;100644.38;;;6.66;100.00
15634;BME280;14654;48.898;8.308;2022-11-03T00:38:24;100644.31;;;6.61;100.00
15634;BME280;14654;48.898;8.308;2022-11-03T00:40:53;100640.84;;;6.58;100.00
15634;BME280;14654;48.898;8.308;2022-11-03T00:43:20;100635.66;;;6.53;100.00
15634;BME280;14654;48.898;8.308;2022-11-03T00:45:45;100639.06;;;6.50;100.00
15634;BME280;14654;48.898;8.308;2022-11-03T00:48:11;100626.16;;;6.47;100.00
15634;BME280;14654;48.898;8.308;2022-11-03T00:51:09;100621.84;;;6.46;100.00
15634;BME280;14654;48.898;8.308;2022-11-03T00:53:46;100610.66;;;6.43;100.00
15634;BME280;14654;48.898;8.308;2022-11-03T00:56:16;100610.63;;;6.39;100.00
15634;BME280;14654;48.898;8.308;2022-11-03T00:58:43;100614.88;;;6.37;100.00
15634;BME280;14654;48.898;8.308;2022-11-03T01:01:14;100618.22;;;6.32;100.00
15634;BME280;14654;48.898;8.308;2022-11-03T01:03:41;100622.44;;;6.27;100.00
15634;BME280;14654;48.898;8.308;2022-11-03T01:06:27;100619.81;;;6.22;100.00
15634;BME280;14654;48.898;8.308;2022-11-03T01:09:11;100630.03;;;6.20;100.00
15634;BME280;14654;48.898;8.308;2022-11-03T01:11:36;100618.91;;;6.18;100.00
15634;BME280;14654;48.898;8.308;2022-11-03T01:14:12;100618.03;;;6.18;100.00
15634;BME280;14654;48.898;8.308;2022-11-03T01:16:39;100624.00;;;6.15;100.00
15634;BME280;14654;48.898;8.308;2022-11-03T01:19:04;100624.81;;;6.14;100.00
15634;BME280;14654;48.898;8.308;2022-11-03T01:21:30;100625.66;;;6.13;100.00
15634;BME280;14654;48.898;8.308;2022-11-03T01:23:55;100622.22;;;6.13;100.00
15634;BME280;14654;48.898;8.308;2022-11-03T01:26:21;100622.22;;;6.13;100.00
15634;BME280;14654;48.898;8.308;2022-11-03T01:28:47;100617.97;;;6.13;100.00
15634;BME280;14654;48.898;8.308;2022-11-03T01:31:21;100615.44;;;6.16;100.00
15634;BME280;14654;48.898;8.308;2022-11-03T01:33:49;100613.66;;;6.12;100.00
15634;BME280;14654;48.898;8.308;2022-11-03T01:36:15;100614.50;;;6.11;100.00
15634;BME280;14654;48.898;8.308;2022-11-03T01:38:40;100611.03;;;6.09;100.00
15634;BME280;14654;48.898;8.308;2022-11-03T01:41:09;100599.03;;;6.06;100.00
15634;BME280;14654;48.898;8.308;2022-11-03T01:43:38;100598.13;;;6.06;100.00
15634;BME280;14654;48.898;8.308;2022-11-03T01:48:39;100596.34;;;6.00;100.00
15634;BME280;14654;48.898;8.308;2022-11-03T01:51:08;100593.75;;;5.99;100.00
15634;BME280;14654;48.898;8.308;2022-11-03T01:53:39;100587.72;;;5.97;100.00
15634;BME280;14654;48.898;8.308;2022-11-03T01:56:08;100579.94;;;5.93;100.00
15634;BME280;14654;48.898;8.308;2022-11-03T01:58:38;100584.19;;;5.90;100.00
15634;BME280;14654;48.898;8.308;2022-11-03T02:01:04;100580.72;;;5.88;100.00
15634;BME280;14654;48.898;8.308;2022-11-03T02:03:37;100577.31;;;5.87;100.00
15634;BME280;14654;48.898;8.308;2022-11-03T02:06:05;100576.41;;;5.85;100.00
15634;BME280;14654;48.898;8.308;2022-11-03T02:08:48;100566.16;;;5.87;100.00
15634;BME280;14654;48.898;8.308;2022-11-03T02:11:15;100573.91;;;5.88;100.00
15634;BME280;14654;48.898;8.308;2022-11-03T02:13:59;100555.91;;;5.88;100.00
15634;BME280;14654;48.898;8.308;2022-11-03T02:16:25;100558.41;;;5.84;100.00
15634;BME280;14654;48.898;8.308;2022-11-03T02:18:54;100548.06;;;5.79;100.00
15634;BME280;14654;48.898;8.308;2022-11-03T02:21:37;100540.28;;;5.74;100.00
15634;BME280;14654;48.898;8.308;2022-11-03T02:24:12;100527.41;;;5.71;100.00
15634;BME280;14654;48.898;8.308;2022-11-03T02:26:42;100523.09;;;5.67;100.00
15634;BME280;14654;48.898;8.308;2022-11-03T02:29:12;100519.59;;;5.63;100.00
15634;BME280;14654;48.898;8.308;2022-11-03T02:31:41;100511.88;;;5.62;100.00
15634;BME280;14654;48.898;8.308;2022-11-03T02:39:14;100507.63;;;5.65;100.00
15634;BME280;14654;48.898;8.308;2022-11-03T02:41:44;100508.47;;;5.63;100.00
15634;BME280;14654;48.898;8.308;2022-11-03T02:44:13;100494.72;;;5.61;100.00
15634;BME280;14654;48.898;8.308;2022-11-03T02:46:42;100502.44;;;5.59;100.00
15634;BME280;14654;48.898;8.308;2022-11-03T02:49:08;100499.00;;;5.60;100.00
15634;BME280;14654;48.898;8.308;2022-11-03T02:51:33;100491.28;;;5.59;100.00
15634;BME280;14654;48.898;8.308;2022-11-03T02:54:20;100484.44;;;5.59;100.00
15634;BME280;14654;48.898;8.308;2022-11-03T02:57:08;100483.63;;;5.62;100.00
15634;BME280;14654;48.898;8.308;2022-11-03T02:59:42;100473.38;;;5.63;100.00
15634;BME280;14654;48.898;8.308;2022-11-03T03:02:12;100469.13;;;5.65;100.00
15634;BME280;14654;48.898;8.308;2022-11-03T03:04:44;100468.28;;;5.67;100.00
15634;BME280;14654;48.898;8.308;2022-11-03T03:07:17;100462.31;;;5.69;100.00
15634;BME280;14654;48.898;8.308;2022-11-03T03:09:56;100450.31;;;5.68;100.00
15634;BME280;14654;48.898;8.308;2022-11-03T03:12:24;100452.88;;;5.67;100.00
15634;BME280;14654;48.898;8.308;2022-11-03T03:14:52;100450.31;;;5.67;100.00
15634;BME280;14654;48.898;8.308;2022-11-03T03:20:20;100440.03;;;5.65;100.00
15634;BME280;14654;48.898;8.308;2022-11-03T03:22:54;100431.47;;;5.66;100.00
15634;BME280;14654;48.898;8.308;2022-11-03T03:25:42;100428.91;;;5.66;100.00
15634;BME280;14654;48.898;8.308;2022-11-03T03:28:13;100434.91;;;5.67;100.00
15634;BME280;14654;48.898;8.308;2022-11-03T03:30:43;100437.53;;;5.71;100.00
15634;BME280;14654;48.898;8.308;2022-11-03T03:33:11;100435.00;;;5.74;100.00
15634;BME280;14654;48.898;8.308;2022-11-03T03:35:39;100423.91;;;5.77;100.00
15634;BME280;14654;48.898;8.308;2022-11-03T03:38:17;100418.81;;;5.80;100.00
15634;BME280;14654;48.898;8.308;2022-11-03T03:40:46;100418.81;;;5.78;100.00
15634;BME280;14654;48.898;8.308;2022-11-03T03:43:15;100413.63;;;5.74;100.00
15634;BME280;14654;48.898;8.308;2022-11-03T03:45:43;100406.72;;;5.71;100.00
15634;BME280;14654;48.898;8.308;2022-11-03T03:48:09;100401.56;;;5.70;100.00
15634;BME280;14654;48.898;8.308;2022-11-03T03:50:37;100404.09;;;5.68;100.00
15634;BME280;14654;48.898;8.308;2022-11-03T03:53:06;100412.69;;;5.70;100.00
15634;BME280;14654;48.898;8.308;2022-11-03T03:55:41;100401.53;;;5.68;100.00
15634;BME280;14654;48.898;8.308;2022-11-03T03:58:09;100398.09;;;5.66;100.00
15634;BME280;14654;48.898;8.308;2022-11-03T04:00:36;100392.09;;;5.65;100.00
15634;BME280;14654;48.898;8.308;2022-11-03T04:03:05;100388.69;;;5.65;100.00
15634;BME280;14654;48.898;8.308;2022-11-03T04:05:30;100394.66;;;5.65;100.00
15634;BME280;14654;48.898;8.308;2022-11-03T04:07:56;100389.50;;;5.64;100.00
15634;BME280;14654;48.898;8.308;2022-11-03T04:10:22;100390.34;;;5.63;100.00
15634;BME280;14654;48.898;8.308;2022-11-03T04:12:49;100383.50;;;5.63;100.00
15634;BME280;14654;48.898;8.308;2022-11-03T04:15:33;100376.63;;;5.59;100.00
15634;BME280;14654;48.898;8.308;2022-11-03T04:18:18;100374.06;;;5.59;100.00
15634;BME280;14654;48.898;8.308;2022-11-03T04:21:02;100377.47;;;5.58;100.00
15634;BME280;14654;48.898;8.308;2022-11-03T04:23:47;100369.72;;;5.57;100.00
15634;BME280;14654;48.898;8.308;2022-11-03T04:26:15;100377.41;;;5.55;100.00
15634;BME280;14654;48.898;8.308;2022-11-03T04:28:41;100373.13;;;5.54;100.00
15634;BME280;14654;48.898;8.308;2022-11-03T04:31:14;100369.66;;;5.52;100.00
15634;BME280;14654;48.898;8.308;2022-11-03T04:33:41;100376.47;;;5.50;100.00
15634;BME280;14654;48.898;8.308;2022-11-03T04:36:14;100373.88;;;5.47;100.00
15634;BME280;14654;48.898;8.308;2022-11-03T04:38:42;100379.84;;;5.46;100.00
15634;BME280;14654;48.898;8.308;2022-11-03T04:41:22;100376.44;;;5.45;100.00
15634;BME280;14654;48.898;8.308;2022-11-03T04:43:49;100377.28;;;5.44;100.00
15634;BME280;14654;48.898;8.308;2022-11-03T04:46:16;100371.25;;;5.42;100.00
15634;BME280;14654;48.898;8.308;2022-11-03T04:48:45;100361.88;;;5.43;100.00
15634;BME280;14654;48.898;8.308;2022-11-03T04:51:17;100363.50;;;5.39;100.00
15634;BME280;14654;48.898;8.308;2022-11-03T04:53:48;100354.06;;;5.37;100.00
15634;BME280;14654;48.898;8.308;2022-11-03T04:56:17;100354.06;;;5.35;100.00
15634;BME280;14654;48.898;8.308;2022-11-03T04:58:44;100352.34;;;5.34;100.00
15634;BME280;14654;48.898;8.308;2022-11-03T05:01:13;100353.16;;;5.33;100.00
15634;BME280;14654;48.898;8.308;2022-11-03T05:03:40;100345.44;;;5.30;100.00
15634;BME280;14654;48.898;8.308;2022-11-03T05:06:18;100345.44;;;5.30;100.00
15634;BME280;14654;48.898;8.308;2022-11-03T05:08:48;100342.84;;;5.28;100.00
15634;BME280;14654;48.898;8.308;2022-11-03T05:13:58;100331.75;;;5.31;100.00
15634;BME280;14654;48.898;8.308;2022-11-03T05:16:24;100322.38;;;5.34;100.00
15634;BME280;14654;48.898;8.308;2022-11-03T05:18:50;100321.53;;;5.36;100.00
15634;BME280;14654;48.898;8.308;2022-11-03T05:21:18;100323.25;;;5.35;100.00
15634;BME280;14654;48.898;8.308;2022-11-03T05:23:48;100321.56;;;5.37;100.00
15634;BME280;14654;48.898;8.308;2022-11-03T05:26:22;100326.72;;;5.39;100.00
15634;BME280;14654;48.898;8.308;2022-11-03T05:28:54;100320.75;;;5.40;100.00
15634;BME280;14654;48.898;8.308;2022-11-03T05:31:28;100313.94;;;5.42;100.00
15634;BME280;14654;48.898;8.308;2022-11-03T05:33:59;100306.22;;;5.42;100.00
15634;BME280;14654;48.898;8.308;2022-11-03T05:36:29;100299.38;;;5.41;100.00
15634;BME280;14654;48.898;8.308;2022-11-03T05:38:58;100292.50;;;5.40;100.00
15634;BME280;14654;48.898;8.308;2022-11-03T05:41:27;100288.19;;;5.37;100.00
15634;BME280;14654;48.898;8.308;2022-11-03T05:44:00;100279.59;;;5.33;100.00
15634;BME280;14654;48.898;8.308;2022-11-03T05:46:29;100283.84;;;5.30;100.00
15634;BME280;14654;48.898;8.308;2022-11-03T05:48:54;100280.38;;;5.28;100.00
15634;BME280;14654;48.898;8.308;2022-11-03T05:51:23;100282.06;;;5.26;100.00
15634;BME280;14654;48.898;8.308;2022-11-03T05:53:57;100269.25;;;5.26;100.00
15634;BME280;14654;48.898;8.308;2022-11-03T05:56:25;100270.97;;;5.27;100.00
15634;BME280;14654;48.898;8.308;2022-11-03T05:58:52;100270.16;;;5.29;100.00
15634;BME280;14654;48.898;8.308;2022-11-03T06:03:55;100274.47;;;5.33;100.00
15634;BME280;14654;48.898;8.308;2022-11-03T06:06:24;100272.78;;;5.36;100.00
15634;BME280;14654;48.898;8.308;2022-11-03T06:08:50;100275.41;;;5.39;100.00
15634;BME280;14654;48.898;8.308;2022-11-03T06:11:27;100268.56;;;5.41;100.00
15634;BME280;14654;48.898;8.308;2022-11-03T06:13:56;100266.91;;;5.44;100.00
15634;BME280;14654;48.898;8.308;2022-11-03T06:18:53;100256.69;;;5.49;100.00
15634;BME280;14654;48.898;8.308;2022-11-03T06:21:21;100249.88;;;5.53;100.00
15634;BME280;14654;48.898;8.308;2022-11-03T06:23:48;100246.53;;;5.58;100.00
15634;BME280;14654;48.898;8.308;2022-11-03T06:26:19;100244.88;;;5.65;100.00
15634;BME280;14654;48.898;8.308;2022-11-03T06:28:45;100247.50;;;5.71;100.00
15634;BME280;14654;48.898;8.308;2022-11-03T06:31:20;100242.44;;;5.77;100.00
15634;BME280;14654;48.898;8.308;2022-11-03T06:33:45;100245.06;;;5.80;100.00
15634;BME280;14654;48.898;8.308;2022-11-03T06:36:31;100240.78;;;5.86;100.00
15634;BME280;14654;48.898;8.308;2022-11-03T06:39:07;100230.56;;;5.89;100.00
15634;BME280;14654;48.898;8.308;2022-11-03T06:41:35;100224.56;;;5.91;100.00
15634;BME280;14654;48.898;8.308;2022-11-03T06:44:06;100222.88;;;5.93;100.00
15634;BME280;14654;48.898;8.308;2022-11-03T06:46:39;100222.03;;;5.94;100.00
15634;BME280;14654;48.898;8.308;2022-11-03T06:49:25;100222.06;;;5.99;100.00
15634;BME280;14654;48.898;8.308;2022-11-03T06:51:51;100211.91;;;6.05;100.00
15634;BME280;14654;48.898;8.308;2022-11-03T06:54:19;100221.38;;;6.11;100.00
15634;BME280;14654;48.898;8.308;2022-11-03T06:56:48;100224.88;;;6.19;100.00
15634;BME280;14654;48.898;8.308;2022-11-03T06:59:15;100228.34;;;6.29;100.00
15634;BME280;14654;48.898;8.308;2022-11-03T07:01:41;100235.31;;;6.39;100.00
15634;BME280;14654;48.898;8.308;2022-11-03T07:04:19;100223.34;;;6.46;100.00
15634;BME280;14654;48.898;8.308;2022-11-03T07:06:46;100225.97;;;6.55;100.00
15634;BME280;14654;48.898;8.308;2022-11-03T07:09:15;100226.03;;;6.62;100.00
15634;BME280;14654;48.898;8.308;2022-11-03T07:11:49;100224.34;;;6.68;100.00
15634;BME280;14654;48.898;8.308;2022-11-03T07:14:15;100214.94;;;6.74;100.00
15634;BME280;14654;48.898;8.308;2022-11-03T07:16:51;100217.53;;;6.80;100.00
15634;BME280;14654;48.898;8.308;2022-11-03T07:19:25;100212.44;;;6.86;100.00
15634;BME280;14654;48.898;8.308;2022-11-03T07:21:54;100215.03;;;6.92;100.00
15634;BME280;14654;48.898;8.308;2022-11-03T07:24:27;100213.38;;;7.00;100.00
15634;BME280;14654;48.898;8.308;2022-11-03T07:27:25;100200.53;;;7.11;100.00
15634;BME280;14654;48.898;8.308;2022-11-03T07:29:56;100200.56;;;7.21;100.00
15634;BME280;14654;48.898;8.308;2022-11-03T07:32:25;100189.44;;;7.28;100.00
15634;BME280;14654;48.898;8.308;2022-11-03T07:35:04;100181.75;;;7.40;100.00
15634;BME280;14654;48.898;8.308;2022-11-03T07:37:35;100170.59;;;7.47;100.00
15634;BME280;14654;48.898;8.308;2022-11-03T07:40:01;100163.75;;;7.53;100.00
15634;BME280;14654;48.898;8.308;2022-11-03T07:42:26;100155.16;;;7.60;100.00
15634;BME280;14654;48.898;8.308;2022-11-03T07:44:54;100157.75;;;7.65;100.00
15634;BME280;14654;48.898;8.308;2022-11-03T07:47:22;100146.59;;;7.69;100.00
15634;BME280;14654;48.898;8.308;2022-11-03T07:49:51;100143.16;;;7.74;100.00
15634;BME280;14654;48.898;8.308;2022-11-03T07:52:23;100142.31;;;7.82;100.00
15634;BME280;14654;48.898;8.308;2022-11-03T07:54:49;100149.19;;;7.90;100.00
15634;BME280;14654;48.898;8.308;2022-11-03T07:57:24;100141.44;;;7.98;100.00
15634;BME280;14654;48.898;8.308;2022-11-03T07:59:52;100141.44;;;8.06;100.00
15634;BME280;14654;48.898;8.308;2022-11-03T08:02:43;100136.25;;;8.15;100.00
15634;BME280;14654;48.898;8.308;2022-11-03T08:05:11;100131.97;;;8.25;100.00
15634;BME280;14654;48.898;8.308;2022-11-03T08:07:37;100128.47;;;8.35;100.00
15634;BME280;14654;48.898;8.308;2022-11-03T08:10:03;100127.59;;;8.41;100.00
15634;BME280;14654;48.898;8.308;2022-11-03T08:12:28;100126.78;;;8.48;100.00
15634;BME280;14654;48.898;8.308;2022-11-03T08:14:54;100126.78;;;8.54;100.00
15634;BME280;14654;48.898;8.308;2022-11-03T08:17:19;100118.13;;;8.62;100.00
15634;BME280;14654;48.898;8.308;2022-11-03T08:19:44;100120.69;;;8.68;100.00
15634;BME280;14654;48.898;8.308;2022-11-03T08:22:10;100117.22;;;8.78;100.00
15634;BME280;14654;48.898;8.308;2022-11-03T08:24:35;100117.16;;;8.89;100.00
15634;BME280;14654;48.898;8.308;2022-11-03T08:27:00;100123.97;;;9.01;100.00
15634;BME280;14654;48.898;8.308;2022-11-03T08:29:27;100112.72;;;9.13;100.00
15634;BME280;14654;48.898;8.308;2022-11-03T08:31:53;100113.50;;;9.29;100.00
15634;BME280;14654;48.898;8.308;2022-11-03T08:34:18;100111.72;;;9.37;100.00
15634;BME280;14654;48.898;8.308;2022-11-03T08:36:44;100115.09;;;9.45;100.00
15634;BME280;14654;48.898;8.308;2022-11-03T08:39:09;100103.00;;;9.54;100.00
15634;BME280;14654;48.898;8.308;2022-11-03T08:41:35;100099.47;;;9.61;100.00
15634;BME280;14654;48.898;8.308;2022-11-03T08:44:00;100103.72;;;9.68;100.00
15634;BME280;14654;48.898;8.308;2022-11-03T08:46:26;100104.50;;;9.76;100.00
15634;BME280;14654;48.898;8.308;2022-11-03T08:48:51;100094.97;;;9.85;100.00
15634;BME280;14654;48.898;8.308;2022-11-03T08:51:17;100089.72;;;9.94;100.00
15634;BME280;14654;48.898;8.308;2022-11-03T08:53:42;100086.19;;;10.03;100.00
15634;BME280;14654;48.898;8.308;2022-11-03T08:56:08;100088.66;;;10.14;100.00
15634;BME280;14654;48.898;8.308;2022-11-03T08:58:34;100084.22;;;10.27;100.00
15634;BME280;14654;48.898;8.308;2022-11-03T09:00:59;100090.13;;;10.36;100.00
15634;BME280;14654;48.898;8.308;2022-11-03T09:03:25;100076.34;;;10.42;100.00
15634;BME280;14654;48.898;8.308;2022-11-03T09:05:50;100078.78;;;10.53;100.00
15634;BME280;14654;48.898;8.308;2022-11-03T09:08:16;100074.28;;;10.67;100.00
15634;BME280;14654;48.898;8.308;2022-11-03T09:10:41;100064.56;;;10.87;100.00
15634;BME280;14654;48.898;8.308;2022-11-03T09:13:06;100064.34;;;11.01;100.00
15634;BME280;14654;48.898;8.308;2022-11-03T09:15:32;100051.25;;;11.11;100.00
15634;BME280;14654;48.898;8.308;2022-11-03T09:17:57;100053.75;;;11.16;100.00
15634;BME280;14654;48.898;8.308;2022-11-03T09:20:23;100052.88;;;11.17;100.00
15634;BME280;14654;48.898;8.308;2022-11-03T09:22:49;100059.69;;;11.24;100.00
15634;BME280;14654;48.898;8.308;2022-11-03T09:25:15;100052.69;;;11.31;100.00
15634;BME280;14654;48.898;8.308;2022-11-03T09:27:40;100047.47;;;11.34;100.00
15634;BME280;14654;48.898;8.308;2022-11-03T09:30:06;100037.00;;;11.39;100.00
15634;BME280;14654;48.898;8.308;2022-11-03T09:32:32;100036.06;;;11.44;100.00
15634;BME280;14654;48.898;8.308;2022-11-03T09:34:57;100040.31;;;11.47;100.00
15634;BME280;14654;48.898;8.308;2022-11-03T09:37:23;100033.47;;;11.44;100.00
15634;BME280;14654;48.898;8.308;2022-11-03T09:39:48;100028.38;;;11.40;100.00
15634;BME280;14654;48.898;8.308;2022-11-03T09:42:14;100023.22;;;11.37;100.00
15634;BME280;14654;48.898;8.308;2022-11-03T09:44:40;100018.91;;;11.36;100.00
15634;BME280;14654;48.898;8.308;2022-11-03T09:47:06;100017.16;;;11.36;100.00
15634;BME280;14654;48.898;8.308;2022-11-03T09:49:32;100019.75;;;11.36;100.00
15634;BME280;14654;48.898;8.308;2022-11-03T09:52:01;100025.72;;;11.41;100.00
15634;BME280;14654;48.898;8.308;2022-11-03T09:54:27;100013.53;;;11.48;100.00
15634;BME280;14654;48.898;8.308;2022-11-03T09:56:56;100018.53;;;11.57;100.00
15634;BME280;14654;48.898;8.308;2022-11-03T09:59:23;100018.41;;;11.65;100.00
15634;BME280;14654;48.898;8.308;2022-11-03T10:01:49;100007.97;;;11.70;100.00
15634;BME280;14654;48.898;8.308;2022-11-03T10:04:21;99995.78;;;11.75;100.00
15634;BME280;14654;48.898;8.308;2022-11-03T10:06:49;99996.50;;;11.83;100.00
15634;BME280;14654;48.898;8.308;2022-11-03T10:09:16;99988.72;;;11.83;100.00
15634;BME280;14654;48.898;8.308;2022-11-03T10:11:44;99988.66;;;11.86;100.00
15634;BME280;14654;48.898;8.308;2022-11-03T10:14:12;99986.97;;;11.84;100.00
15634;BME280;14654;48.898;8.308;2022-11-03T10:16:39;99989.56;;;11.85;100.00
15634;BME280;14654;48.898;8.308;2022-11-03T10:19:09;99983.47;;;11.86;100.00
15634;BME280;14654;48.898;8.308;2022-11-03T10:21:36;99975.56;;;11.93;100.00
15634;BME280;14654;48.898;8.308;2022-11-03T10:24:03;99969.44;;;11.97;100.00
15634;BME280;14654;48.898;8.308;2022-11-03T10:26:28;99971.03;;;12.04;100.00
15634;BME280;14654;48.898;8.308;2022-11-03T10:29:04;99960.44;;;12.16;100.00
15634;BME280;14654;48.898;8.308;2022-11-03T10:31:40;99948.09;;;12.28;100.00
15634;BME280;14654;48.898;8.308;2022-11-03T10:34:34;99954.88;;;12.33;100.00
15634;BME280;14654;48.898;8.308;2022-11-03T10:39:45;99939.09;;;12.43;100.00
15634;BME280;14654;48.898;8.308;2022-11-03T10:42:26;99939.03;;;12.46;100.00
15634;BME280;14654;48.898;8.308;2022-11-03T10:45:08;99919.97;;;12.47;100.00
15634;BME280;14654;48.898;8.308;2022-11-03T10:47:34;99911.25;;;12.51;100.00
15634;BME280;14654;48.898;8.308;2022-11-03T10:52:39;99910.91;;;12.67;100.00
15634;BME280;14654;48.898;8.308;2022-11-03T10:55:04;99902.13;;;12.71;100.00
15634;BME280;14654;48.898;8.308;2022-11-03T10:57:30;99901.16;;;12.76;100.00
15634;BME280;14654;48.898;8.308;2022-11-03T10:59:56;99882.84;;;12.81;100.00
15634;BME280;14654;48.898;8.308;2022-11-03T11:02:29;99882.59;;;12.92;100.00
15634;BME280;14654;48.898;8.308;2022-11-03T11:05:01;99860.91;;;12.93;100.00
15634;BME280;14654;48.898;8.308;2022-11-03T11:07:34;99866.88;;;12.96;100.00
15634;BME280;14654;48.898;8.308;2022-11-03T11:10:06;99859.72;;;13.05;100.00
15634;BME280;14654;48.898;8.308;2022-11-03T11:12:32;99847.50;;;13.08;100.00
15634;BME280;14654;48.898;8.308;2022-11-03T11:15:00;99855.19;;;13.13;100.00
15634;BME280;14654;48.898;8.308;2022-11-03T11:20:33;99848.03;;;13.23;100.00
15634;BME280;14654;48.898;8.308;2022-11-03T11:29:32;99825.31;;;13.30;100.00
15634;BME280;14654;48.898;8.308;2022-11-03T11:31:58;99821.72;;;13.34;100.00
15634;BME280;14654;48.898;8.308;2022-11-03T11:49:59;99788.06;;;13.29;100.00
15634;BME280;14654;48.898;8.308;2022-11-03T11:52:25;99776.78;;;13.30;100.00
15634;BME280;14654;48.898;8.308;2022-11-03T11:54:51;99778.53;;;13.30;100.00
15634;BME280;14654;48.898;8.308;2022-11-03T11:57:19;99770.91;;;13.23;100.00
15634;BME280;14654;48.898;8.308;2022-11-03T11:59:47;99776.16;;;13.22;100.00
15634;BME280;14654;48.898;8.308;2022-11-03T12:02:23;99767.72;;;13.14;100.00
15634;BME280;14654;48.898;8.308;2022-11-03T12:04:56;99757.38;;;13.10;100.00
15634;BME280;14654;48.898;8.308;2022-11-03T12:07:34;99750.69;;;13.03;100.00
15634;BME280;14654;48.898;8.308;2022-11-03T12:10:08;99738.66;;;12.99;100.00
15634;BME280;14654;48.898;8.308;2022-11-03T12:12:33;99731.00;;;12.94;100.00
15634;BME280;14654;48.898;8.308;2022-11-03T12:14:59;99725.97;;;12.88;100.00
15634;BME280;14654;48.898;8.308;2022-11-03T12:19:53;99720.63;;;12.94;100.00
15634;BME280;14654;48.898;8.308;2022-11-03T12:24:56;99701.56;;;12.94;100.00
15634;BME280;14654;48.898;8.308;2022-11-03T12:32:20;99701.69;;;12.89;100.00
15634;BME280;14654;48.898;8.308;2022-11-03T12:34:46;99691.38;;;12.88;100.00
15634;BME280;14654;48.898;8.308;2022-11-03T12:37:11;99688.78;;;12.88;100.00
15634;BME280;14654;48.898;8.308;2022-11-03T12:39:37;99679.38;;;12.84;100.00
15634;BME280;14654;48.898;8.308;2022-11-03T12:42:03;99681.16;;;12.81;100.00
15634;BME280;14654;48.898;8.308;2022-11-03T12:44:30;99664.75;;;12.79;100.00
15634;BME280;14654;48.898;8.308;2022-11-03T12:46:55;99656.13;;;12.79;100.00
15634;BME280;14654;48.898;8.308;2022-11-03T12:49:20;99651.00;;;12.77;100.00
15634;BME280;14654;48.898;8.308;2022-11-03T12:51:46;99644.03;;;12.78;100.00
15634;BME280;14654;48.898;8.308;2022-11-03T12:54:12;99638.94;;;12.75;100.00
15634;BME280;14654;48.898;8.308;2022-11-03T12:56:37;99634.91;;;12.63;100.00
15634;BME280;14654;48.898;8.308;2022-11-03T12:59:02;99620.38;;;12.57;100.00
15634;BME280;14654;48.898;8.308;2022-11-03T13:01:29;99611.91;;;12.50;100.00
15634;BME280;14654;48.898;8.308;2022-11-03T13:03:54;99600.84;;;12.44;100.00
15634;BME280;14654;48.898;8.308;2022-11-03T13:06:20;99595.63;;;12.45;100.00
15634;BME280;14654;48.898;8.308;2022-11-03T13:08:45;99582.66;;;12.45;100.00
15634;BME280;14654;48.898;8.308;2022-11-03T13:11:11;99576.75;;;12.40;100.00
15634;BME280;14654;48.898;8.308;2022-11-03T13:13:55;99555.13;;;12.40;100.00
15634;BME280;14654;48.898;8.308;2022-11-03T13:16:21;99547.25;;;12.43;100.00
15634;BME280;14654;48.898;8.308;2022-11-03T13:18:46;99542.06;;;12.43;100.00
15634;BME280;14654;48.898;8.308;2022-11-03T13:21:12;99530.09;;;12.39;100.00
15634;BME280;14654;48.898;8.308;2022-11-03T13:23:38;99516.97;;;12.43;100.00
15634;BME280;14654;48.898;8.308;2022-11-03T13:26:03;99525.28;;;12.55;100.00
15634;BME280;14654;48.898;8.308;2022-11-03T13:28:29;99523.28;;;12.64;100.00
15634;BME280;14654;48.898;8.308;2022-11-03T13:30:54;99518.97;;;12.63;100.00
15634;BME280;14654;48.898;8.308;2022-11-03T13:33:19;99514.63;;;12.64;100.00
15634;BME280;14654;48.898;8.308;2022-11-03T13:35:45;99509.41;;;12.65;100.00
15634;BME280;14654;48.898;8.308;2022-11-03T13:38:10;99500.75;;;12.65;100.00
15634;BME280;14654;48.898;8.308;2022-11-03T13:40:35;99505.03;;;12.66;100.00
15634;BME280;14654;48.898;8.308;2022-11-03T13:43:01;99504.25;;;12.64;100.00
15634;BME280;14654;48.898;8.308;2022-11-03T13:45:26;99500.81;;;12.63;100.00
15634;BME280;14654;48.898;8.308;2022-11-03T13:47:52;99509.56;;;12.59;100.00
15634;BME280;14654;48.898;8.308;2022-11-03T13:50:17;99513.94;;;12.57;100.00
15634;BME280;14654;48.898;8.308;2022-11-03T13:52:43;99518.41;;;12.54;100.00
15634;BME280;14654;48.898;8.308;2022-11-03T13:55:10;99502.00;;;12.52;100.00
15634;BME280;14654;48.898;8.308;2022-11-03T13:57:36;99483.81;;;12.53;100.00
15634;BME280;14654;48.898;8.308;2022-11-03T14:00:05;99473.56;;;12.48;100.00
15634;BME280;14654;48.898;8.308;2022-11-03T14:02:32;99463.09;;;12.52;100.00
15634;BME280;14654;48.898;8.308;2022-11-03T14:04:57;99453.50;;;12.54;100.00